Time;durP1;ratioP1;P1;durP2;ratioP2;P2;SDS_P1;SDS_P2;PMS_P1;PMS_P2;Temp;Humidity;BMP_temperature;BMP_pressure;BME280_temperature;BME280_humidity;BME280_pressure;Samples;Min_cycle;Max_cycle;Signal;HPM_P1;HPM_P2
2023/10/06 00:01:31;;;;;;;6.83;1.23;;;;;;;17.63;81.59;101309.88;5074796;28;20206;-77
2023/10/06 00:03:59;;;;;;;7.10;1.63;;;;;;;17.73;81.50;101308.69;5074550;28;20201;-76
2023/10/06 00:06:27;;;;;;;1.70;1.60;;;;;;;17.53;82.31;101308.34;5075204;28;20190;-76
2023/10/06 00:08:56;;;;;;;1.73;1.63;;;;;;;17.43;82.37;101302.41;5073493;28;20182;-76
2023/10/06 00:11:31;;;;;;;2.63;1.97;;;;;;;17.57;81.95;101310.41;5073136;28;20231;-77
2023/10/06 00:14:07;;;;;;;1.27;1.17;;;;;;;17.41;82.48;101301.94;5068988;28;20178;-76
2023/10/06 00:16:39;;;;;;;1.73;1.20;;;;;;;17.36;82.53;101307.63;5073552;28;20543;-77
2023/10/06 00:19:21;;;;;;;11.40;2.57;;;;;;;17.34;82.48;101298.88;5074480;28;20243;-76
2023/10/06 00:21:53;;;;;;;7.53;2.43;;;;;;;17.36;82.61;101293.81;5074420;28;20178;-76
2023/10/06 00:24:23;;;;;;;1.77;1.67;;;;;;;17.31;81.72;101281.03;5073063;28;20556;-76
2023/10/06 00:26:49;;;;;;;0.90;0.87;;;;;;;17.41;81.65;101299.16;5073313;28;20647;-76
2023/10/06 00:29:21;;;;;;;0.73;0.73;;;;;;;17.33;81.82;101302.78;5074376;28;20178;-76
2023/10/06 00:31:47;;;;;;;1.60;1.50;;;;;;;17.37;81.38;101304.56;5075439;28;20182;-79
2023/10/06 00:34:19;;;;;;;2.93;1.70;;;;;;;17.37;81.25;101293.50;5079003;28;20262;-79
2023/10/06 00:36:56;;;;;;;1.03;1.00;;;;;;;17.38;80.78;101297.09;5077446;28;20183;-79
2023/10/06 00:39:25;;;;;;;0.83;0.83;;;;;;;17.14;81.73;101292.19;5069309;28;20207;-79
2023/10/06 00:41:56;;;;;;;0.67;0.50;;;;;;;17.03;82.34;101291.78;5076611;28;20616;-79
2023/10/06 00:44:23;;;;;;;3.23;1.23;;;;;;;17.09;82.26;101295.16;5078831;28;20206;-79
2023/10/06 00:46:48;;;;;;;1.83;1.47;;;;;;;16.83;82.94;101287.03;5078737;28;20175;-79
2023/10/06 00:49:14;;;;;;;5.70;1.90;;;;;;;16.73;83.00;101274.41;5077547;28;20186;-79
2023/10/06 00:51:41;;;;;;;7.43;1.90;;;;;;;16.71;83.38;101286.94;5078642;28;20246;-79
2023/10/06 00:54:07;;;;;;;4.27;2.33;;;;;;;16.64;84.67;101284.66;5071257;28;20210;-78
2023/10/06 00:56:33;;;;;;;0.77;0.63;;;;;;;16.90;83.76;101293.63;5076418;28;20171;-78
2023/10/06 00:59:03;;;;;;;8.83;2.17;;;;;;;16.93;82.90;101281.13;5075232;28;20199;-76
2023/10/06 01:01:29;;;;;;;4.17;2.30;;;;;;;16.85;82.65;101268.19;5073923;28;20643;-76
2023/10/06 01:04:16;;;;;;;0.80;0.73;;;;;;;16.73;83.17;101260.59;5073743;28;20266;-76
2023/10/06 01:06:41;;;;;;;2.73;2.17;;;;;;;16.58;84.14;101250.09;5073183;28;20202;-76
2023/10/06 01:09:14;;;;;;;0.87;0.70;;;;;;;16.88;83.55;101276.59;5073701;28;20170;-76
2023/10/06 01:11:44;;;;;;;2.93;1.60;;;;;;;16.64;83.41;101257.06;5072222;28;20178;-76
2023/10/06 01:14:10;;;;;;;1.33;1.23;;;;;;;16.75;83.36;101265.78;5073442;28;20206;-76
2023/10/06 01:16:36;;;;;;;1.43;0.60;;;;;;;16.80;83.38;101268.38;5072165;28;20197;-76
2023/10/06 01:19:15;;;;;;;0.33;0.33;;;;;;;16.83;83.58;101279.56;5071955;28;20206;-76
2023/10/06 01:21:48;;;;;;;7.27;2.13;;;;;;;16.78;82.76;101278.91;5073082;28;20594;-76
2023/10/06 01:24:17;;;;;;;0.10;0.10;;;;;;;16.91;82.98;101291.69;5073198;28;20210;-76
2023/10/06 01:26:43;;;;;;;1.57;1.47;;;;;;;16.50;83.29;101260.06;5072168;28;20189;-78
2023/10/06 01:29:11;;;;;;;4.47;3.37;;;;;;;16.45;84.52;101265.72;5075212;28;20175;-78
2023/10/06 01:31:41;;;;;;;5.97;1.77;;;;;;;16.53;84.54;101264.09;5073390;28;20190;-78
2023/10/06 01:34:11;;;;;;;5.37;3.07;;;;;;;16.28;85.47;101260.28;5066659;28;20237;-78
2023/10/06 01:36:37;;;;;;;6.70;1.40;;;;;;;16.44;85.54;101277.91;5073335;28;20218;-78
2023/10/06 01:39:04;;;;;;;10.63;3.90;;;;;;;16.39;85.15;101269.84;5074636;28;20198;-78
2023/10/06 01:41:36;;;;;;;2.13;2.00;;;;;;;16.40;85.20;101273.41;5073222;28;20182;-78
2023/10/06 01:44:10;;;;;;;7.23;1.97;;;;;;;16.42;84.62;101257.31;5073687;28;20624;-78
2023/10/06 01:46:37;;;;;;;3.00;0.50;;;;;;;16.50;84.77;101262.81;5074302;28;20647;-78
2023/10/06 01:49:03;;;;;;;9.83;3.97;;;;;;;16.45;84.78;101251.94;5074456;28;20189;-78
2023/10/06 01:51:35;;;;;;;11.27;1.93;;;;;;;16.44;84.63;101249.53;5071532;28;20189;-78
2023/10/06 01:54:01;;;;;;;2.10;1.97;;;;;;;16.40;84.93;101246.63;5069025;28;20203;-78
2023/10/06 01:56:27;;;;;;;0.63;0.63;;;;;;;16.61;84.20;101257.72;5074503;28;20178;-78
2023/10/06 01:58:52;;;;;;;1.87;1.50;;;;;;;16.57;84.24;101257.56;5074209;28;20300;-78
2023/10/06 02:01:20;;;;;;;0.60;0.60;;;;;;;16.58;83.75;101256.44;5072884;28;20190;-78
2023/10/06 02:03:46;;;;;;;1.03;1.03;;;;;;;16.71;83.56;101262.91;5072788;28;20183;-76
2023/10/06 02:06:13;;;;;;;4.70;0.63;;;;;;;16.75;83.30;101268.56;5071511;28;20197;-76
2023/10/06 02:08:39;;;;;;;4.03;1.50;;;;;;;16.64;83.09;101260.63;5072098;28;20231;-76
2023/10/06 02:11:04;;;;;;;1.10;1.10;;;;;;;16.56;83.29;101249.63;5072907;28;20257;-75
2023/10/06 02:13:29;;;;;;;5.23;1.10;;;;;;;16.75;82.33;101252.00;5072123;28;20639;-75
2023/10/06 02:15:58;;;;;;;4.03;1.70;;;;;;;16.65;82.41;101248.47;5070955;28;20701;-76
2023/10/06 02:18:35;;;;;;;4.20;2.20;;;;;;;16.43;82.97;101242.38;5070875;28;20198;-75
2023/10/06 02:21:09;;;;;;;2.90;1.97;;;;;;;16.51;83.12;101245.13;5071036;28;20566;-75
2023/10/06 02:23:37;;;;;;;4.40;1.60;;;;;;;16.60;82.88;101251.38;5072098;28;20197;-76
2023/10/06 02:26:07;;;;;;;2.80;1.90;;;;;;;16.54;82.84;101247.22;5070799;28;20620;-76
2023/10/06 02:28:33;;;;;;;1.67;1.57;;;;;;;16.53;82.39;101239.28;5062563;28;20585;-76
2023/10/06 02:31:04;;;;;;;9.73;1.33;;;;;;;16.59;82.16;101241.50;5072074;28;20181;-76
2023/10/06 02:33:30;;;;;;;11.17;1.43;;;;;;;16.58;82.08;101231.59;5070714;28;20194;-76
2023/10/06 02:35:58;;;;;;;2.10;1.70;;;;;;;16.47;82.12;101224.84;5071940;28;20186;-76
2023/10/06 02:38:28;;;;;;;1.30;1.17;;;;;;;16.63;82.01;101234.16;5071860;28;20244;-76
2023/10/06 02:40:53;;;;;;;4.43;2.13;;;;;;;16.46;82.10;101223.22;5071893;28;20190;-76
2023/10/06 02:43:20;;;;;;;5.40;4.90;;;;;;;16.52;81.86;101221.91;5071980;28;20186;-76
2023/10/06 02:45:46;;;;;;;5.50;1.13;;;;;;;16.35;82.24;101214.53;5067863;28;20671;-76
2023/10/06 02:48:33;;;;;;;1.90;1.80;;;;;;;16.56;82.04;101217.34;5067904;28;20265;-76
2023/10/06 02:51:01;;;;;;;0.77;0.77;;;;;;;16.75;81.56;101227.97;5071887;28;20203;-76
2023/10/06 02:53:29;;;;;;;0.17;0.10;;;;;;;16.45;82.19;101210.56;5063415;28;20222;-76
2023/10/06 02:56:05;;;;;;;4.97;2.27;;;;;;;16.35;82.34;101211.78;5070412;28;20198;-79
2023/10/06 02:58:31;;;;;;;2.00;1.90;;;;;;;16.45;81.81;101215.28;5072129;28;20674;-76
2023/10/06 03:00:57;;;;;;;14.70;2.97;;;;;;;16.34;82.00;101214.84;5071809;28;20185;-76
2023/10/06 03:03:26;;;;;;;0.00;0.00;;;;;;;16.75;81.91;101246.47;5071598;28;20220;-76
2023/10/06 03:05:53;;;;;;;0.30;0.30;;;;;;;16.66;80.90;101225.25;5071511;28;20205;-76
2023/10/06 03:08:24;;;;;;;0.00;0.00;;;;;;;16.75;80.55;101225.19;5070435;28;20175;-76
2023/10/06 03:10:49;;;;;;;0.00;0.00;;;;;;;16.97;79.82;101228.81;5071726;28;20201;-76
2023/10/06 03:13:33;;;;;;;0.00;0.00;;;;;;;16.96;79.47;101230.78;5071758;28;20212;-76
2023/10/06 03:15:59;;;;;;;0.00;0.00;;;;;;;16.98;79.26;101233.19;5071591;28;20289;-77
2023/10/06 03:18:25;;;;;;;0.20;0.20;;;;;;;16.73;79.41;101223.94;5071739;28;20194;-76
2023/10/06 03:20:59;;;;;;;0.00;0.00;;;;;;;16.70;79.96;101225.41;5068933;28;20529;-76
2023/10/06 03:23:43;;;;;;;5.50;1.70;;;;;;;16.78;79.43;101221.81;5074046;28;20272;-76
2023/10/06 03:26:19;;;;;;;0.87;0.87;;;;;;;16.64;79.59;101215.69;5075694;28;20178;-76
2023/10/06 03:28:48;;;;;;;1.50;1.40;;;;;;;16.26;79.92;101194.44;5075447;28;20162;-76
2023/10/06 03:33:46;;;;;;;0.00;0.00;;;;;;;16.37;81.56;101216.94;5075690;28;20202;-76
2023/10/06 03:36:15;;;;;;;0.27;0.17;;;;;;;16.53;80.65;101215.25;5074246;28;20206;-76
2023/10/06 03:38:44;;;;;;;1.37;1.27;;;;;;;16.30;80.26;101191.81;5075252;28;20244;-76
2023/10/06 03:41:18;;;;;;;7.90;1.03;;;;;;;16.18;81.75;101194.47;5073778;28;20712;-76
2023/10/06 03:43:53;;;;;;;1.97;0.97;;;;;;;16.20;82.09;101203.22;5075268;28;20177;-76
2023/10/06 03:46:19;;;;;;;0.53;0.53;;;;;;;16.39;81.67;101200.06;5075157;28;20179;-76
2023/10/06 03:48:48;;;;;;;1.07;1.07;;;;;;;16.21;81.89;101199.34;5065152;28;20170;-76
2023/10/06 03:51:16;;;;;;;0.00;0.00;;;;;;;16.38;81.85;101209.50;5073510;28;20265;-76
2023/10/06 03:53:41;;;;;;;0.03;0.03;;;;;;;16.36;81.76;101213.38;5065384;28;20185;-76
2023/10/06 03:56:08;;;;;;;5.07;1.70;;;;;;;15.99;81.95;101183.84;5073773;28;20178;-75
2023/10/06 03:58:33;;;;;;;0.20;0.20;;;;;;;16.17;82.65;101212.16;5073492;28;20206;-76
2023/10/06 04:01:07;;;;;;;1.13;0.60;;;;;;;16.31;81.79;101212.75;5075008;28;20178;-76
2023/10/06 04:03:33;;;;;;;0.10;0.07;;;;;;;16.36;81.14;101207.06;5074785;28;20182;-76
2023/10/06 04:05:59;;;;;;;0.00;0.00;;;;;;;16.40;81.05;101204.44;5072801;28;20281;-76
2023/10/06 04:08:24;;;;;;;6.00;1.27;;;;;;;16.30;80.99;101195.38;5055243;28;20182;-76
2023/10/06 04:10:57;;;;;;;0.50;0.50;;;;;;;16.25;81.06;101197.53;5060650;28;20185;-76
2023/10/06 04:13:24;;;;;;;2.77;1.70;;;;;;;16.08;81.16;101195.66;5056960;28;20214;-76
2023/10/06 04:15:49;;;;;;;0.97;0.97;;;;;;;16.10;81.82;101201.66;5054553;28;20252;-78
2023/10/06 04:18:17;;;;;;;0.93;0.93;;;;;;;16.25;81.48;101222.34;5043607;28;20664;-78
2023/10/06 04:20:44;;;;;;;0.37;0.37;;;;;;;16.40;80.85;101227.31;5058180;28;20193;-78
2023/10/06 04:23:13;;;;;;;0.20;0.20;;;;;;;16.27;80.37;101209.03;5054712;28;20203;-78
2023/10/06 04:25:39;;;;;;;0.83;0.83;;;;;;;16.05;81.25;101194.34;5067667;28;20206;-78
2023/10/06 04:28:05;;;;;;;2.47;0.97;;;;;;;16.17;81.23;101198.38;5069884;28;20254;-78
2023/10/06 04:30:31;;;;;;;0.10;0.10;;;;;;;16.25;81.05;101214.06;5055746;28;20281;-78
2023/10/06 04:32:56;;;;;;;2.73;2.13;;;;;;;16.02;81.18;101200.53;5076568;28;20224;-78
2023/10/06 04:35:24;;;;;;;1.23;1.17;;;;;;;15.98;81.72;101194.06;5058172;28;20767;-78
2023/10/06 04:37:50;;;;;;;5.67;2.00;;;;;;;16.20;81.63;101209.56;5060645;28;20203;-78
2023/10/06 04:40:20;;;;;;;0.53;0.37;;;;;;;16.33;80.92;101202.19;5075546;28;20187;-78
2023/10/06 04:42:46;;;;;;;3.83;2.13;;;;;;;16.15;81.16;101184.91;5074471;28;20713;-78
2023/10/06 04:45:14;;;;;;;2.57;1.27;;;;;;;16.08;81.68;101184.63;5075954;28;20222;-78
2023/10/06 04:47:41;;;;;;;0.90;0.90;;;;;;;16.08;81.69;101172.81;5074553;28;20182;-78
2023/10/06 04:50:09;;;;;;;3.23;2.20;;;;;;;15.82;82.12;101157.16;5074554;28;20212;-78
2023/10/06 04:52:36;;;;;;;4.03;1.00;;;;;;;16.18;81.76;101180.69;5073465;28;20269;-76
2023/10/06 04:55:03;;;;;;;7.60;1.33;;;;;;;16.09;81.91;101179.94;5073993;28;20225;-77
2023/10/06 04:57:28;;;;;;;6.40;1.17;;;;;;;16.19;81.48;101180.34;5057399;28;20230;-78
2023/10/06 04:59:54;;;;;;;0.83;0.83;;;;;;;16.04;81.39;101176.19;5060477;28;20261;-78
2023/10/06 05:02:22;;;;;;;0.70;0.70;;;;;;;16.17;81.08;101174.34;5074806;28;20197;-77
2023/10/06 05:04:47;;;;;;;0.30;0.30;;;;;;;16.18;80.75;101162.19;5070392;28;20199;-78
2023/10/06 05:07:12;;;;;;;0.67;0.67;;;;;;;16.32;80.63;101173.81;5053361;28;20213;-77
2023/10/06 05:09:40;;;;;;;0.17;0.17;;;;;;;16.33;80.61;101160.81;5073835;28;20175;-78
2023/10/06 05:12:05;;;;;;;0.87;0.87;;;;;;;16.29;80.43;101151.59;5074347;28;20228;-77
2023/10/06 05:14:34;;;;;;;4.00;2.23;;;;;;;15.78;81.34;101120.38;5074111;28;20194;-78
2023/10/06 05:16:59;;;;;;;0.37;0.37;;;;;;;16.12;81.36;101140.66;5074261;28;20174;-77
2023/10/06 05:19:24;;;;;;;11.93;2.87;;;;;;;16.20;80.42;101142.56;5074155;28;20563;-77
2023/10/06 05:21:52;;;;;;;0.17;0.17;;;;;;;16.48;80.10;101154.72;5073882;28;20182;-77
2023/10/06 05:24:18;;;;;;;0.70;0.70;;;;;;;16.33;80.07;101145.09;5073879;28;20302;-77
2023/10/06 05:26:43;;;;;;;0.73;0.73;;;;;;;16.65;79.25;101167.63;5074089;28;20542;-77
2023/10/06 05:29:11;;;;;;;1.90;0.83;;;;;;;16.74;78.92;101156.56;5074097;28;20670;-77
2023/10/06 05:31:39;;;;;;;7.20;0.50;;;;;;;16.42;79.34;101134.00;5072533;28;20187;-77
2023/10/06 05:34:07;;;;;;;0.67;0.67;;;;;;;16.24;79.98;101146.28;5073972;28;20190;-78
2023/10/06 05:36:32;;;;;;;4.47;0.47;;;;;;;16.42;79.76;101156.06;5072382;28;20205;-77
2023/10/06 05:38:59;;;;;;;1.37;0.70;;;;;;;16.49;79.71;101175.69;5073630;28;20682;-77
2023/10/06 05:41:31;;;;;;;2.63;1.47;;;;;;;16.41;79.90;101182.03;5073167;28;20269;-77
2023/10/06 05:43:58;;;;;;;0.87;0.43;;;;;;;16.57;79.33;101196.88;5073170;28;20174;-77
2023/10/06 05:46:24;;;;;;;1.07;0.97;;;;;;;16.71;79.04;101201.38;5073084;28;20232;-77
2023/10/06 05:48:51;;;;;;;0.10;0.10;;;;;;;16.88;78.41;101212.31;5073004;28;20260;-77
2023/10/06 05:51:21;;;;;;;0.80;0.80;;;;;;;16.76;78.19;101190.94;5073083;28;20220;-78
2023/10/06 05:53:48;;;;;;;0.50;0.50;;;;;;;16.64;78.35;101190.84;5075045;28;20266;-78
2023/10/06 05:56:15;;;;;;;0.00;0.00;;;;;;;16.84;78.30;101212.16;5075698;28;20175;-78
2023/10/06 05:58:43;;;;;;;1.30;1.20;;;;;;;16.55;78.82;101195.59;5075503;28;20194;-78
2023/10/06 06:01:14;;;;;;;5.57;0.47;;;;;;;16.65;79.23;101204.31;5067561;28;20234;-78
2023/10/06 06:03:45;;;;;;;0.20;0.20;;;;;;;16.74;79.03;101215.31;5075713;28;20185;-78
2023/10/06 06:06:12;;;;;;;0.10;0.10;;;;;;;16.85;78.94;101224.00;5074295;28;20261;-78
2023/10/06 06:08:40;;;;;;;6.80;1.23;;;;;;;17.16;77.85;101224.44;5075513;28;20182;-78
2023/10/06 06:11:06;;;;;;;0.00;0.00;;;;;;;16.93;77.34;101177.03;5074256;28;20233;-78
2023/10/06 06:13:34;;;;;;;1.83;1.73;;;;;;;16.91;77.75;101172.97;5074320;28;20186;-78
2023/10/06 06:15:59;;;;;;;1.63;1.37;;;;;;;16.77;78.29;101155.88;5074078;28;20605;-78
2023/10/06 06:18:27;;;;;;;0.07;0.07;;;;;;;16.92;78.01;101167.16;5073865;28;20247;-78
2023/10/06 06:20:53;;;;;;;4.90;1.30;;;;;;;16.71;78.81;101149.75;5075097;28;20181;-78
2023/10/06 06:23:20;;;;;;;0.67;0.40;;;;;;;16.76;78.54;101157.81;5074997;28;20179;-78
2023/10/06 06:25:46;;;;;;;0.37;0.37;;;;;;;16.78;79.04;101174.88;5073269;28;20230;-78
2023/10/06 06:28:12;;;;;;;6.30;1.93;;;;;;;16.91;78.59;101178.50;5073622;28;20178;-78
2023/10/06 06:30:39;;;;;;;0.20;0.20;;;;;;;16.98;78.89;101183.50;5074020;28;20648;-78
2023/10/06 06:33:05;;;;;;;1.13;0.90;;;;;;;16.77;79.01;101167.72;5065862;28;20220;-78
2023/10/06 06:35:34;;;;;;;1.03;1.03;;;;;;;17.00;78.70;101167.41;5072650;28;20201;-78
2023/10/06 06:38:01;;;;;;;1.37;1.27;;;;;;;16.75;79.05;101158.16;5064125;28;20214;-77
2023/10/06 06:40:28;;;;;;;1.23;1.23;;;;;;;17.00;79.29;101184.78;5062916;28;20201;-77
2023/10/06 06:42:55;;;;;;;0.50;0.50;;;;;;;17.22;78.64;101198.25;5046850;28;20289;-77
2023/10/06 06:45:24;;;;;;;0.00;0.00;;;;;;;17.39;78.31;101199.25;5059420;28;20241;-79
2023/10/06 06:47:49;;;;;;;0.40;0.40;;;;;;;17.67;77.58;101194.75;5048224;28;20176;-77
2023/10/06 06:50:17;;;;;;;2.63;0.60;;;;;;;17.39;77.43;101171.63;5070265;28;20232;-78
2023/10/06 06:52:48;;;;;;;0.53;0.47;;;;;;;17.68;77.14;101199.16;5072963;28;20542;-77
2023/10/06 06:55:14;;;;;;;2.20;1.70;;;;;;;17.52;77.23;101185.13;5072199;28;20203;-78
2023/10/06 06:57:44;;;;;;;2.37;1.50;;;;;;;17.37;76.83;101179.44;5054896;28;20275;-77
2023/10/06 07:00:17;;;;;;;0.50;0.50;;;;;;;17.51;77.17;101189.06;5052732;28;20175;-78
2023/10/06 07:02:46;;;;;;;0.07;0.07;;;;;;;17.74;76.73;101194.22;5051842;28;20282;-78
2023/10/06 07:05:15;;;;;;;0.10;0.10;;;;;;;17.79;76.26;101183.75;5055713;28;20206;-78
2023/10/06 07:07:45;;;;;;;4.27;1.70;;;;;;;17.39;76.63;101149.53;5053120;28;20257;-78
2023/10/06 07:10:15;;;;;;;0.53;0.53;;;;;;;17.39;77.63;101175.19;5068955;28;20234;-78
2023/10/06 07:12:42;;;;;;;8.20;0.83;;;;;;;17.66;76.76;101182.06;5072134;28;20186;-78
2023/10/06 07:15:20;;;;;;;1.07;0.67;;;;;;;17.45;76.72;101151.72;5070014;28;20194;-77
2023/10/06 07:17:56;;;;;;;11.70;2.10;;;;;;;17.25;76.80;101142.34;5050387;28;20209;-77
2023/10/06 07:20:29;;;;;;;4.33;1.47;;;;;;;17.09;77.42;101152.41;5070280;28;20277;-77
2023/10/06 07:22:56;;;;;;;2.73;1.33;;;;;;;17.42;76.73;101166.22;5073311;28;20171;-77
2023/10/06 07:25:26;;;;;;;2.77;0.90;;;;;;;17.37;76.78;101158.16;5072061;28;20225;-78
2023/10/06 07:27:55;;;;;;;0.80;0.47;;;;;;;17.25;77.35;101153.38;5074099;28;20516;-78
2023/10/06 07:30:22;;;;;;;1.57;1.10;;;;;;;17.43;77.07;101162.31;5059825;28;20263;-78
2023/10/06 07:32:50;;;;;;;0.93;0.93;;;;;;;17.62;76.81;101181.13;5061825;28;20663;-78
2023/10/06 07:35:18;;;;;;;1.03;0.93;;;;;;;17.45;76.64;101161.97;5061510;28;20187;-78
2023/10/06 07:37:45;;;;;;;0.30;0.30;;;;;;;18.00;75.72;101188.41;5057159;28;20198;-78
2023/10/06 07:40:15;;;;;;;0.33;0.33;;;;;;;18.03;75.00;101191.28;5060940;28;20220;-78
2023/10/06 07:42:41;;;;;;;0.90;0.90;;;;;;;17.81;75.23;101153.81;5063852;28;20651;-78
2023/10/06 07:45:07;;;;;;;0.10;0.10;;;;;;;18.12;75.34;101175.41;5058312;28;20294;-78
2023/10/06 07:47:34;;;;;;;0.10;0.10;;;;;;;18.21;74.83;101164.19;5046128;28;20563;-78
2023/10/06 07:49:59;;;;;;;1.53;1.30;;;;;;;17.69;75.59;101122.56;5053135;28;20203;-78
2023/10/06 07:52:25;;;;;;;0.37;0.23;;;;;;;18.06;75.58;101151.88;5057439;28;20199;-78
2023/10/06 07:54:51;;;;;;;0.10;0.10;;;;;;;17.98;76.25;101152.00;5063727;28;20237;-78
2023/10/06 07:57:16;;;;;;;0.27;0.27;;;;;;;18.28;74.97;101167.22;5060936;28;20258;-78
2023/10/06 07:59:42;;;;;;;1.90;0.70;;;;;;;17.99;74.85;101128.72;5062778;28;20277;-78
2023/10/06 08:02:07;;;;;;;1.50;1.40;;;;;;;18.30;74.30;101130.91;5061788;28;20269;-78
2023/10/06 08:04:32;;;;;;;1.40;1.27;;;;;;;18.05;74.14;101108.78;5064465;28;20248;-78
2023/10/06 08:07:00;;;;;;;1.70;1.53;;;;;;;17.92;74.54;101117.41;5061288;28;20187;-78
2023/10/06 08:09:26;;;;;;;2.03;1.40;;;;;;;18.24;74.17;101129.53;5055838;28;20632;-78
2023/10/06 08:11:54;;;;;;;3.90;1.83;;;;;;;18.05;73.95;101113.50;5059918;28;20175;-78
2023/10/06 08:14:20;;;;;;;10.23;1.20;;;;;;;18.39;73.66;101149.00;5074239;28;20210;-78
2023/10/06 08:16:49;;;;;;;3.10;1.13;;;;;;;18.48;73.15;101137.78;5066149;28;20175;-79
2023/10/06 08:19:15;;;;;;;6.03;1.10;;;;;;;18.79;72.99;101150.22;5043038;28;20726;-78
2023/10/06 08:21:41;;;;;;;2.07;1.47;;;;;;;18.72;73.03;101137.00;5069665;28;20179;-80
2023/10/06 08:24:07;;;;;;;7.60;0.77;;;;;;;18.98;71.98;101140.16;5057320;28;20242;-79
2023/10/06 08:26:32;;;;;;;0.53;0.47;;;;;;;19.28;71.09;101139.81;5074468;28;20209;-79
2023/10/06 08:28:57;;;;;;;0.03;0.03;;;;;;;19.13;71.21;101110.91;5073731;28;20635;-79
2023/10/06 08:31:24;;;;;;;5.90;2.63;;;;;;;18.69;71.33;101085.91;5066676;28;20183;-79
2023/10/06 08:33:49;;;;;;;1.20;0.90;;;;;;;19.03;71.47;101112.19;5073921;28;20272;-79
2023/10/06 08:36:16;;;;;;;4.53;0.93;;;;;;;18.90;71.39;101093.22;5066719;28;20683;-79
2023/10/06 08:38:44;;;;;;;9.93;1.10;;;;;;;18.85;71.49;101105.34;5049845;28;20660;-79
2023/10/06 08:41:11;;;;;;;1.47;1.37;;;;;;;18.77;70.76;101086.91;5050267;28;20277;-79
2023/10/06 08:43:38;;;;;;;2.33;1.13;;;;;;;18.88;70.57;101081.69;5056966;28;20263;-78
2023/10/06 08:46:05;;;;;;;0.47;0.47;;;;;;;18.95;70.80;101087.41;5059461;28;20199;-79
2023/10/06 08:48:32;;;;;;;5.47;0.80;;;;;;;19.11;70.10;101085.53;5072950;28;20170;-79
2023/10/06 08:50:59;;;;;;;0.70;0.60;;;;;;;19.16;69.50;101090.00;5074564;28;20193;-79
2023/10/06 08:53:26;;;;;;;1.30;0.10;;;;;;;19.37;69.55;101123.81;5074485;28;20186;-79
2023/10/06 08:55:52;;;;;;;2.57;1.20;;;;;;;19.32;69.20;101107.44;5076062;28;20202;-79
2023/10/06 08:58:17;;;;;;;5.43;0.97;;;;;;;19.29;69.08;101094.31;5069389;28;20222;-79
2023/10/06 09:00:43;;;;;;;0.40;0.40;;;;;;;19.13;69.12;101083.19;5054727;28;20215;-79
2023/10/06 09:03:14;;;;;;;2.13;0.77;;;;;;;19.16;68.73;101090.78;5071496;28;20239;-79
2023/10/06 09:05:44;;;;;;;1.23;0.53;;;;;;;19.24;68.69;101081.53;5079046;28;20206;-80
2023/10/06 09:08:11;;;;;;;0.00;0.00;;;;;;;19.60;68.38;101101.91;5071367;28;20175;-80
2023/10/06 09:10:50;;;;;;;1.53;1.40;;;;;;;19.28;68.75;101057.50;5071475;28;20183;-80
2023/10/06 09:13:17;;;;;;;2.13;1.13;;;;;;;18.89;69.34;101025.94;5045997;28;20206;-79
2023/10/06 09:15:54;;;;;;;2.33;1.43;;;;;;;19.22;69.12;101052.53;5053094;28;20532;-79
2023/10/06 09:18:27;;;;;;;0.77;0.73;;;;;;;19.12;69.14;101047.53;5051381;28;20225;-79
2023/10/06 09:20:54;;;;;;;0.10;0.10;;;;;;;19.18;68.84;101051.66;5078165;28;20308;-80
2023/10/06 09:23:30;;;;;;;0.80;0.80;;;;;;;19.23;68.84;101040.31;5077323;28;20170;-79
2023/10/06 09:25:57;;;;;;;1.20;1.03;;;;;;;18.93;69.16;101013.00;5077608;28;20213;-80
2023/10/06 09:28:22;;;;;;;0.20;0.20;;;;;;;19.20;68.75;101043.78;5078213;28;20175;-80
2023/10/06 09:30:56;;;;;;;27.37;0.83;;;;;;;19.33;67.93;101048.91;5076809;28;20178;-79
2023/10/06 09:33:26;;;;;;;0.80;0.80;;;;;;;19.41;67.83;101069.31;5076369;28;20258;-80
2023/10/06 09:36:07;;;;;;;0.60;0.50;;;;;;;19.44;67.95;101067.78;5069766;28;20208;-80
2023/10/06 09:38:35;;;;;;;4.37;1.40;;;;;;;19.28;68.14;101062.22;5078236;28;20733;-80
2023/10/06 09:41:00;;;;;;;2.03;1.63;;;;;;;18.95;68.58;101048.63;5077721;28;20170;-79
2023/10/06 09:43:32;;;;;;;1.00;0.93;;;;;;;19.20;68.87;101077.03;5085718;22;20229;-81
2023/10/06 09:46:08;;;;;;;2.50;1.23;;;;;;;18.81;69.76;101051.84;5076567;28;20189;-81
2023/10/06 09:48:36;;;;;;;1.40;0.70;;;;;;;18.97;70.48;101063.78;5076632;28;20216;-81
2023/10/06 09:51:06;;;;;;;11.70;1.47;;;;;;;19.11;69.66;101059.78;5068298;28;20191;-81
2023/10/06 09:53:36;;;;;;;3.30;1.80;;;;;;;19.07;69.59;101039.47;5074183;28;20221;-81
2023/10/06 09:56:06;;;;;;;2.63;1.67;;;;;;;19.23;69.34;101054.16;5074506;28;20672;-81
2023/10/06 09:58:31;;;;;;;0.63;0.63;;;;;;;19.52;68.73;101078.69;5076074;28;20212;-80
2023/10/06 10:00:59;;;;;;;4.03;1.33;;;;;;;19.61;68.30;101056.38;5073761;28;20507;-80
2023/10/06 10:03:24;;;;;;;1.03;0.93;;;;;;;19.12;69.16;101039.22;5075681;28;20205;-82
2023/10/06 10:05:52;;;;;;;1.53;0.67;;;;;;;18.96;69.67;101023.38;5068093;28;20179;-80
2023/10/06 10:08:18;;;;;;;7.43;1.97;;;;;;;18.88;69.78;101024.34;5068662;28;20895;-80
2023/10/06 10:10:47;;;;;;;5.17;0.97;;;;;;;19.01;69.31;101036.97;5070327;28;20190;-80
2023/10/06 10:13:31;;;;;;;1.03;0.83;;;;;;;18.98;69.25;101025.81;5069186;28;20722;-81
2023/10/06 10:16:20;;;;;;;2.00;0.80;;;;;;;18.97;69.70;101033.31;5069472;28;20281;-80
2023/10/06 10:19:00;;;;;;;3.30;1.50;;;;;;;19.11;69.38;101043.16;5065357;28;20206;-80
2023/10/06 10:21:26;;;;;;;1.90;1.03;;;;;;;19.00;69.17;101018.75;5071114;28;20540;-80
2023/10/06 10:23:54;;;;;;;5.07;1.30;;;;;;;19.31;68.73;101040.16;5071853;28;20711;-81
2023/10/06 10:26:27;;;;;;;1.93;0.90;;;;;;;19.61;68.57;101059.94;5064224;28;20183;-81
2023/10/06 10:29:16;;;;;;;0.50;0.50;;;;;;;19.70;68.14;101059.78;5063934;28;20249;-81
2023/10/06 10:31:47;;;;;;;2.33;1.43;;;;;;;19.46;68.11;101027.47;5060282;28;20248;-81
2023/10/06 10:34:23;;;;;;;1.73;0.50;;;;;;;19.78;67.60;101039.38;5068776;28;20285;-81
2023/10/06 10:37:12;;;;;;;0.63;0.63;;;;;;;19.99;67.32;101049.38;5066887;28;20174;-81
2023/10/06 10:39:52;;;;;;;2.40;0.97;;;;;;;19.93;67.08;101043.28;5068250;28;20773;-81
2023/10/06 10:42:22;;;;;;;1.60;1.17;;;;;;;19.95;66.99;101032.63;5062627;28;20193;-81
2023/10/06 10:45:25;;;;;;;2.63;1.10;;;;;;;19.75;66.27;101003.25;5070969;28;20923;-83
2023/10/06 10:47:51;;;;;;;1.90;0.93;;;;;;;19.99;66.58;101008.56;5059177;28;20186;-81
2023/10/06 10:50:17;;;;;;;1.17;1.17;;;;;;;19.88;66.13;100993.66;5066000;28;20194;-82
2023/10/06 10:52:42;;;;;;;3.20;1.60;;;;;;;19.89;66.44;101004.38;5065401;28;20208;-81
2023/10/06 10:55:12;;;;;;;1.23;0.70;;;;;;;20.00;66.09;101003.84;5068098;28;20191;-81
2023/10/06 10:57:44;;;;;;;1.10;0.73;;;;;;;20.08;66.24;101014.72;5069170;28;20174;-81
2023/10/06 11:02:38;;;;;;;0.30;0.30;;;;;;;20.34;65.29;101010.53;5072368;28;20270;-81
2023/10/06 11:05:05;;;;;;;13.73;1.20;;;;;;;20.01;65.63;100997.91;5067178;28;20199;-81
2023/10/06 11:07:31;;;;;;;0.63;0.63;;;;;;;20.43;65.49;101002.84;5068900;28;20539;-81
2023/10/06 11:09:57;;;;;;;0.60;0.60;;;;;;;20.55;64.61;100997.13;5071361;28;20265;-82
2023/10/06 11:12:24;;;;;;;4.07;1.20;;;;;;;20.31;64.54;100981.53;5070745;28;20269;-83
2023/10/06 11:14:51;;;;;;;2.97;0.60;;;;;;;20.17;64.77;100972.91;5068263;28;20202;-81
2023/10/06 11:17:21;;;;;;;9.90;1.40;;;;;;;20.45;64.99;100989.38;5067748;28;20611;-81
2023/10/06 11:19:46;;;;;;;0.30;0.30;;;;;;;20.59;64.96;100981.34;5061098;28;20198;-81
2023/10/06 11:22:19;;;;;;;0.83;0.60;;;;;;;20.49;64.33;100968.03;5069694;28;20216;-81
2023/10/06 11:24:46;;;;;;;2.77;2.53;;;;;;;20.33;64.58;100965.31;5072203;28;20633;-82
2023/10/06 11:27:17;;;;;;;0.03;0.03;;;;;;;20.51;64.35;100990.69;5073396;28;20245;-81
2023/10/06 11:29:44;;;;;;;1.23;1.13;;;;;;;20.17;64.48;100951.50;5072327;28;20182;-81
2023/10/06 11:32:10;;;;;;;1.50;1.20;;;;;;;20.48;64.73;100978.34;5067558;28;20206;-82
2023/10/06 11:34:36;;;;;;;1.73;0.77;;;;;;;20.48;64.21;100958.13;5069676;28;20554;-81
2023/10/06 11:37:02;;;;;;;1.23;0.77;;;;;;;20.41;64.56;100958.78;5059946;28;20178;-81